sensor_id;sensor_type;location;lat;lon;timestamp;P1;durP1;ratioP1;P2;durP2;ratioP2
10641;SDS011;5369;49.586;8.646;2023-09-18T00:02:05;3.13;;;2.70;;
10641;SDS011;5369;49.586;8.646;2023-09-18T00:04:31;2.70;;;2.50;;
10641;SDS011;5369;49.586;8.646;2023-09-18T00:06:58;2.90;;;2.60;;
10641;SDS011;5369;49.586;8.646;2023-09-18T00:09:25;3.03;;;2.83;;
10641;SDS011;5369;49.586;8.646;2023-09-18T00:11:51;3.90;;;2.67;;
10641;SDS011;5369;49.586;8.646;2023-09-18T00:14:18;3.93;;;2.80;;
10641;SDS011;5369;49.586;8.646;2023-09-18T00:16:44;4.60;;;2.53;;
10641;SDS011;5369;49.586;8.646;2023-09-18T00:19:10;3.77;;;2.70;;
10641;SDS011;5369;49.586;8.646;2023-09-18T00:21:36;3.43;;;2.80;;
10641;SDS011;5369;49.586;8.646;2023-09-18T00:24:03;3.13;;;2.80;;
10641;SDS011;5369;49.586;8.646;2023-09-18T00:26:29;2.90;;;2.60;;
10641;SDS011;5369;49.586;8.646;2023-09-18T00:28:56;3.17;;;2.67;;
10641;SDS011;5369;49.586;8.646;2023-09-18T00:31:22;3.53;;;2.43;;
10641;SDS011;5369;49.586;8.646;2023-09-18T00:33:48;4.10;;;2.43;;
10641;SDS011;5369;49.586;8.646;2023-09-18T00:36:14;4.63;;;2.73;;
10641;SDS011;5369;49.586;8.646;2023-09-18T00:38:41;3.30;;;2.60;;
10641;SDS011;5369;49.586;8.646;2023-09-18T00:41:07;2.90;;;2.63;;
10641;SDS011;5369;49.586;8.646;2023-09-18T00:43:33;2.87;;;2.60;;
10641;SDS011;5369;49.586;8.646;2023-09-18T00:46:00;2.70;;;2.50;;
10641;SDS011;5369;49.586;8.646;2023-09-18T00:48:26;2.87;;;2.47;;
10641;SDS011;5369;49.586;8.646;2023-09-18T00:50:53;2.97;;;2.70;;
10641;SDS011;5369;49.586;8.646;2023-09-18T00:53:20;2.97;;;2.63;;
10641;SDS011;5369;49.586;8.646;2023-09-18T00:55:47;3.43;;;2.60;;
10641;SDS011;5369;49.586;8.646;2023-09-18T00:58:15;3.50;;;2.60;;
10641;SDS011;5369;49.586;8.646;2023-09-18T01:00:41;2.80;;;2.50;;
10641;SDS011;5369;49.586;8.646;2023-09-18T01:03:08;5.33;;;2.90;;
10641;SDS011;5369;49.586;8.646;2023-09-18T01:05:34;2.97;;;2.67;;
10641;SDS011;5369;49.586;8.646;2023-09-18T01:08:01;3.13;;;2.50;;
10641;SDS011;5369;49.586;8.646;2023-09-18T01:10:30;3.83;;;2.53;;
10641;SDS011;5369;49.586;8.646;2023-09-18T01:13:01;2.87;;;2.57;;
10641;SDS011;5369;49.586;8.646;2023-09-18T01:15:32;4.17;;;2.93;;
10641;SDS011;5369;49.586;8.646;2023-09-18T01:18:01;5.50;;;2.73;;
10641;SDS011;5369;49.586;8.646;2023-09-18T01:20:28;2.97;;;2.40;;
10641;SDS011;5369;49.586;8.646;2023-09-18T01:22:54;4.97;;;2.80;;
10641;SDS011;5369;49.586;8.646;2023-09-18T01:25:20;3.00;;;2.70;;
10641;SDS011;5369;49.586;8.646;2023-09-18T01:27:47;3.87;;;2.30;;
10641;SDS011;5369;49.586;8.646;2023-09-18T01:30:14;3.87;;;2.60;;
10641;SDS011;5369;49.586;8.646;2023-09-18T01:32:42;3.83;;;2.60;;
10641;SDS011;5369;49.586;8.646;2023-09-18T01:35:09;3.63;;;2.77;;
10641;SDS011;5369;49.586;8.646;2023-09-18T01:37:35;2.63;;;2.43;;
10641;SDS011;5369;49.586;8.646;2023-09-18T01:40:04;3.00;;;2.80;;
10641;SDS011;5369;49.586;8.646;2023-09-18T01:42:32;7.27;;;2.90;;
10641;SDS011;5369;49.586;8.646;2023-09-18T01:44:59;4.20;;;2.83;;
10641;SDS011;5369;49.586;8.646;2023-09-18T01:47:25;5.20;;;3.10;;
10641;SDS011;5369;49.586;8.646;2023-09-18T01:49:54;4.53;;;2.83;;
10641;SDS011;5369;49.586;8.646;2023-09-18T01:52:20;3.90;;;2.57;;
10641;SDS011;5369;49.586;8.646;2023-09-18T01:54:46;4.00;;;2.63;;
10641;SDS011;5369;49.586;8.646;2023-09-18T01:57:13;2.87;;;2.50;;
10641;SDS011;5369;49.586;8.646;2023-09-18T01:59:39;3.20;;;2.80;;
10641;SDS011;5369;49.586;8.646;2023-09-18T02:02:07;5.03;;;2.80;;
10641;SDS011;5369;49.586;8.646;2023-09-18T02:04:34;4.13;;;3.13;;
10641;SDS011;5369;49.586;8.646;2023-09-18T02:07:01;3.80;;;3.07;;
10641;SDS011;5369;49.586;8.646;2023-09-18T02:09:27;3.50;;;2.77;;
10641;SDS011;5369;49.586;8.646;2023-09-18T02:11:53;4.53;;;2.90;;
10641;SDS011;5369;49.586;8.646;2023-09-18T02:14:19;3.53;;;3.10;;
10641;SDS011;5369;49.586;8.646;2023-09-18T02:16:45;4.73;;;3.07;;
10641;SDS011;5369;49.586;8.646;2023-09-18T02:19:12;4.70;;;3.40;;
10641;SDS011;5369;49.586;8.646;2023-09-18T02:21:39;4.17;;;3.17;;
10641;SDS011;5369;49.586;8.646;2023-09-18T02:24:05;5.00;;;3.63;;
10641;SDS011;5369;49.586;8.646;2023-09-18T02:26:32;4.97;;;3.80;;
10641;SDS011;5369;49.586;8.646;2023-09-18T02:28:59;5.73;;;3.63;;
10641;SDS011;5369;49.586;8.646;2023-09-18T02:31:25;4.83;;;3.60;;
10641;SDS011;5369;49.586;8.646;2023-09-18T02:33:53;4.80;;;3.43;;
10641;SDS011;5369;49.586;8.646;2023-09-18T02:36:19;4.17;;;3.50;;
10641;SDS011;5369;49.586;8.646;2023-09-18T02:38:48;3.87;;;3.20;;
10641;SDS011;5369;49.586;8.646;2023-09-18T02:41:14;4.40;;;3.00;;
10641;SDS011;5369;49.586;8.646;2023-09-18T02:43:40;4.87;;;3.27;;
10641;SDS011;5369;49.586;8.646;2023-09-18T02:46:06;6.03;;;2.80;;
10641;SDS011;5369;49.586;8.646;2023-09-18T02:48:32;3.73;;;2.90;;
10641;SDS011;5369;49.586;8.646;2023-09-18T02:50:59;3.33;;;2.80;;
10641;SDS011;5369;49.586;8.646;2023-09-18T02:53:25;4.23;;;2.83;;
10641;SDS011;5369;49.586;8.646;2023-09-18T02:55:53;4.90;;;2.83;;
10641;SDS011;5369;49.586;8.646;2023-09-18T02:58:19;4.43;;;3.30;;
10641;SDS011;5369;49.586;8.646;2023-09-18T03:00:46;5.43;;;3.23;;
10641;SDS011;5369;49.586;8.646;2023-09-18T03:03:13;5.63;;;2.90;;
10641;SDS011;5369;49.586;8.646;2023-09-18T03:05:40;5.53;;;3.30;;
10641;SDS011;5369;49.586;8.646;2023-09-18T03:08:06;3.87;;;2.70;;
10641;SDS011;5369;49.586;8.646;2023-09-18T03:10:33;5.63;;;2.87;;
10641;SDS011;5369;49.586;8.646;2023-09-18T03:13:03;4.90;;;2.90;;
10641;SDS011;5369;49.586;8.646;2023-09-18T03:15:30;4.13;;;2.77;;
10641;SDS011;5369;49.586;8.646;2023-09-18T03:17:57;6.87;;;3.03;;
10641;SDS011;5369;49.586;8.646;2023-09-18T03:20:23;5.60;;;2.97;;
10641;SDS011;5369;49.586;8.646;2023-09-18T03:22:50;6.40;;;2.90;;
10641;SDS011;5369;49.586;8.646;2023-09-18T03:25:17;4.40;;;2.67;;
10641;SDS011;5369;49.586;8.646;2023-09-18T03:27:43;4.83;;;2.57;;
10641;SDS011;5369;49.586;8.646;2023-09-18T03:30:09;4.37;;;3.03;;
10641;SDS011;5369;49.586;8.646;2023-09-18T03:32:38;5.30;;;2.97;;
10641;SDS011;5369;49.586;8.646;2023-09-18T03:35:04;3.67;;;2.60;;
10641;SDS011;5369;49.586;8.646;2023-09-18T03:37:31;5.50;;;2.77;;
10641;SDS011;5369;49.586;8.646;2023-09-18T03:39:57;5.67;;;3.00;;
10641;SDS011;5369;49.586;8.646;2023-09-18T03:42:23;5.97;;;3.07;;
10641;SDS011;5369;49.586;8.646;2023-09-18T03:44:49;5.93;;;2.93;;
10641;SDS011;5369;49.586;8.646;2023-09-18T03:47:15;4.37;;;3.00;;
10641;SDS011;5369;49.586;8.646;2023-09-18T03:49:41;4.80;;;2.93;;
10641;SDS011;5369;49.586;8.646;2023-09-18T03:52:08;6.27;;;2.80;;
10641;SDS011;5369;49.586;8.646;2023-09-18T03:54:34;3.50;;;3.00;;
10641;SDS011;5369;49.586;8.646;2023-09-18T03:57:00;5.77;;;3.10;;
10641;SDS011;5369;49.586;8.646;2023-09-18T03:59:26;6.87;;;3.00;;
10641;SDS011;5369;49.586;8.646;2023-09-18T04:01:52;8.77;;;3.27;;
10641;SDS011;5369;49.586;8.646;2023-09-18T04:04:18;7.00;;;3.23;;
10641;SDS011;5369;49.586;8.646;2023-09-18T04:06:44;8.10;;;3.87;;
10641;SDS011;5369;49.586;8.646;2023-09-18T04:09:11;7.70;;;3.30;;
10641;SDS011;5369;49.586;8.646;2023-09-18T04:11:38;6.23;;;3.43;;
10641;SDS011;5369;49.586;8.646;2023-09-18T04:14:04;7.97;;;3.37;;
10641;SDS011;5369;49.586;8.646;2023-09-18T04:16:30;10.17;;;3.60;;
10641;SDS011;5369;49.586;8.646;2023-09-18T04:18:56;11.17;;;3.60;;
10641;SDS011;5369;49.586;8.646;2023-09-18T04:21:22;8.53;;;3.77;;
10641;SDS011;5369;49.586;8.646;2023-09-18T04:23:50;8.73;;;4.03;;
10641;SDS011;5369;49.586;8.646;2023-09-18T04:26:21;9.60;;;3.73;;
10641;SDS011;5369;49.586;8.646;2023-09-18T04:28:47;11.97;;;4.07;;
10641;SDS011;5369;49.586;8.646;2023-09-18T04:31:14;8.23;;;3.90;;
10641;SDS011;5369;49.586;8.646;2023-09-18T04:33:41;9.03;;;4.20;;
10641;SDS011;5369;49.586;8.646;2023-09-18T04:36:07;9.20;;;4.43;;
10641;SDS011;5369;49.586;8.646;2023-09-18T04:38:33;14.87;;;3.90;;
10641;SDS011;5369;49.586;8.646;2023-09-18T04:41:00;8.40;;;3.97;;
10641;SDS011;5369;49.586;8.646;2023-09-18T04:43:27;9.27;;;4.00;;
10641;SDS011;5369;49.586;8.646;2023-09-18T04:45:55;9.93;;;4.10;;
10641;SDS011;5369;49.586;8.646;2023-09-18T04:48:22;7.70;;;3.70;;
10641;SDS011;5369;49.586;8.646;2023-09-18T04:50:48;14.77;;;3.67;;
10641;SDS011;5369;49.586;8.646;2023-09-18T04:53:14;9.37;;;3.57;;
10641;SDS011;5369;49.586;8.646;2023-09-18T04:55:41;8.10;;;3.37;;
10641;SDS011;5369;49.586;8.646;2023-09-18T04:58:07;6.00;;;3.23;;
10641;SDS011;5369;49.586;8.646;2023-09-18T05:00:33;6.80;;;3.37;;
10641;SDS011;5369;49.586;8.646;2023-09-18T05:03:00;9.23;;;3.10;;
10641;SDS011;5369;49.586;8.646;2023-09-18T05:05:27;7.97;;;3.03;;
10641;SDS011;5369;49.586;8.646;2023-09-18T05:07:55;8.17;;;3.10;;
10641;SDS011;5369;49.586;8.646;2023-09-18T05:10:21;7.10;;;3.00;;
10641;SDS011;5369;49.586;8.646;2023-09-18T05:12:48;7.80;;;3.10;;
10641;SDS011;5369;49.586;8.646;2023-09-18T05:15:15;7.90;;;2.87;;
10641;SDS011;5369;49.586;8.646;2023-09-18T05:17:43;5.57;;;2.40;;
10641;SDS011;5369;49.586;8.646;2023-09-18T05:20:10;4.63;;;2.47;;
10641;SDS011;5369;49.586;8.646;2023-09-18T05:22:37;4.13;;;2.20;;
10641;SDS011;5369;49.586;8.646;2023-09-18T05:25:03;5.83;;;2.37;;
10641;SDS011;5369;49.586;8.646;2023-09-18T05:27:31;6.80;;;2.63;;
10641;SDS011;5369;49.586;8.646;2023-09-18T05:29:57;7.73;;;2.80;;
10641;SDS011;5369;49.586;8.646;2023-09-18T05:32:23;7.43;;;2.60;;
10641;SDS011;5369;49.586;8.646;2023-09-18T05:34:49;8.03;;;2.80;;
10641;SDS011;5369;49.586;8.646;2023-09-18T05:37:15;8.70;;;2.87;;
10641;SDS011;5369;49.586;8.646;2023-09-18T05:39:42;7.57;;;2.57;;
10641;SDS011;5369;49.586;8.646;2023-09-18T05:42:08;7.77;;;2.67;;
10641;SDS011;5369;49.586;8.646;2023-09-18T05:44:34;6.13;;;2.70;;
10641;SDS011;5369;49.586;8.646;2023-09-18T05:47:00;7.80;;;3.00;;
10641;SDS011;5369;49.586;8.646;2023-09-18T05:49:29;4.63;;;2.60;;
10641;SDS011;5369;49.586;8.646;2023-09-18T05:51:55;7.07;;;2.90;;
10641;SDS011;5369;49.586;8.646;2023-09-18T05:54:21;9.17;;;3.30;;
10641;SDS011;5369;49.586;8.646;2023-09-18T05:56:47;7.90;;;3.50;;
10641;SDS011;5369;49.586;8.646;2023-09-18T05:59:13;8.97;;;3.37;;
10641;SDS011;5369;49.586;8.646;2023-09-18T06:01:41;9.47;;;3.20;;
10641;SDS011;5369;49.586;8.646;2023-09-18T06:04:08;9.97;;;3.30;;
10641;SDS011;5369;49.586;8.646;2023-09-18T06:06:34;10.43;;;3.60;;
10641;SDS011;5369;49.586;8.646;2023-09-18T06:09:00;9.40;;;3.60;;
10641;SDS011;5369;49.586;8.646;2023-09-18T06:11:27;7.53;;;3.33;;
10641;SDS011;5369;49.586;8.646;2023-09-18T06:13:53;8.63;;;3.47;;
10641;SDS011;5369;49.586;8.646;2023-09-18T06:16:19;12.27;;;3.77;;
10641;SDS011;5369;49.586;8.646;2023-09-18T06:18:45;8.20;;;3.57;;
10641;SDS011;5369;49.586;8.646;2023-09-18T06:21:12;8.33;;;3.40;;
10641;SDS011;5369;49.586;8.646;2023-09-18T06:23:38;9.70;;;3.90;;
10641;SDS011;5369;49.586;8.646;2023-09-18T06:26:04;7.77;;;3.60;;
10641;SDS011;5369;49.586;8.646;2023-09-18T06:28:30;8.97;;;3.67;;
10641;SDS011;5369;49.586;8.646;2023-09-18T06:30:56;7.90;;;3.63;;
10641;SDS011;5369;49.586;8.646;2023-09-18T06:33:22;9.00;;;3.80;;
10641;SDS011;5369;49.586;8.646;2023-09-18T06:35:48;7.93;;;3.03;;
10641;SDS011;5369;49.586;8.646;2023-09-18T06:38:17;10.30;;;3.63;;
10641;SDS011;5369;49.586;8.646;2023-09-18T06:40:43;10.13;;;3.80;;
10641;SDS011;5369;49.586;8.646;2023-09-18T06:43:09;13.27;;;4.17;;
10641;SDS011;5369;49.586;8.646;2023-09-18T06:45:35;12.10;;;3.87;;
10641;SDS011;5369;49.586;8.646;2023-09-18T06:48:03;8.00;;;3.70;;
10641;SDS011;5369;49.586;8.646;2023-09-18T06:50:30;11.33;;;4.00;;
10641;SDS011;5369;49.586;8.646;2023-09-18T06:52:56;6.83;;;3.23;;
10641;SDS011;5369;49.586;8.646;2023-09-18T06:55:22;8.53;;;3.23;;
10641;SDS011;5369;49.586;8.646;2023-09-18T06:57:48;10.30;;;3.70;;
10641;SDS011;5369;49.586;8.646;2023-09-18T07:00:17;7.90;;;3.67;;
10641;SDS011;5369;49.586;8.646;2023-09-18T07:02:46;9.13;;;3.90;;
10641;SDS011;5369;49.586;8.646;2023-09-18T07:05:12;11.77;;;3.33;;
10641;SDS011;5369;49.586;8.646;2023-09-18T07:07:38;13.10;;;3.70;;
10641;SDS011;5369;49.586;8.646;2023-09-18T07:10:05;9.90;;;3.93;;
10641;SDS011;5369;49.586;8.646;2023-09-18T07:12:31;7.07;;;3.27;;
10641;SDS011;5369;49.586;8.646;2023-09-18T07:14:59;7.57;;;3.47;;
10641;SDS011;5369;49.586;8.646;2023-09-18T07:17:28;7.13;;;3.50;;
10641;SDS011;5369;49.586;8.646;2023-09-18T07:19:54;8.07;;;3.20;;
10641;SDS011;5369;49.586;8.646;2023-09-18T07:22:20;9.80;;;3.30;;
10641;SDS011;5369;49.586;8.646;2023-09-18T07:24:46;9.73;;;3.57;;
10641;SDS011;5369;49.586;8.646;2023-09-18T07:27:12;8.57;;;3.80;;
10641;SDS011;5369;49.586;8.646;2023-09-18T07:29:39;10.97;;;3.40;;
10641;SDS011;5369;49.586;8.646;2023-09-18T07:32:05;7.87;;;3.27;;
10641;SDS011;5369;49.586;8.646;2023-09-18T07:34:31;10.50;;;3.33;;
10641;SDS011;5369;49.586;8.646;2023-09-18T07:36:57;6.27;;;3.50;;
10641;SDS011;5369;49.586;8.646;2023-09-18T07:39:24;8.03;;;3.30;;
10641;SDS011;5369;49.586;8.646;2023-09-18T07:41:50;9.90;;;3.33;;
10641;SDS011;5369;49.586;8.646;2023-09-18T07:44:21;9.27;;;3.27;;
10641;SDS011;5369;49.586;8.646;2023-09-18T07:46:47;10.27;;;3.17;;
10641;SDS011;5369;49.586;8.646;2023-09-18T07:49:13;5.33;;;2.50;;
10641;SDS011;5369;49.586;8.646;2023-09-18T07:51:39;8.50;;;2.80;;
10641;SDS011;5369;49.586;8.646;2023-09-18T07:54:07;9.13;;;2.83;;
10641;SDS011;5369;49.586;8.646;2023-09-18T07:56:33;7.27;;;2.83;;
10641;SDS011;5369;49.586;8.646;2023-09-18T07:59:01;8.40;;;2.63;;
10641;SDS011;5369;49.586;8.646;2023-09-18T08:01:28;7.17;;;2.20;;
10641;SDS011;5369;49.586;8.646;2023-09-18T08:03:56;6.23;;;2.20;;
10641;SDS011;5369;49.586;8.646;2023-09-18T08:06:24;6.33;;;2.40;;
10641;SDS011;5369;49.586;8.646;2023-09-18T08:08:51;7.00;;;2.00;;
10641;SDS011;5369;49.586;8.646;2023-09-18T08:11:18;4.53;;;2.00;;
10641;SDS011;5369;49.586;8.646;2023-09-18T08:13:44;3.70;;;1.70;;
10641;SDS011;5369;49.586;8.646;2023-09-18T08:16:10;6.40;;;1.87;;
10641;SDS011;5369;49.586;8.646;2023-09-18T08:18:38;5.77;;;2.00;;
10641;SDS011;5369;49.586;8.646;2023-09-18T08:21:07;6.83;;;1.93;;
10641;SDS011;5369;49.586;8.646;2023-09-18T08:23:37;6.10;;;1.90;;
10641;SDS011;5369;49.586;8.646;2023-09-18T08:26:03;5.57;;;2.00;;
10641;SDS011;5369;49.586;8.646;2023-09-18T08:28:29;5.03;;;1.80;;
10641;SDS011;5369;49.586;8.646;2023-09-18T08:30:56;8.10;;;1.70;;
10641;SDS011;5369;49.586;8.646;2023-09-18T08:33:23;4.73;;;1.80;;
10641;SDS011;5369;49.586;8.646;2023-09-18T08:35:50;5.07;;;1.60;;
10641;SDS011;5369;49.586;8.646;2023-09-18T08:38:16;4.87;;;1.70;;
10641;SDS011;5369;49.586;8.646;2023-09-18T08:40:42;4.20;;;1.70;;
10641;SDS011;5369;49.586;8.646;2023-09-18T08:43:09;3.40;;;1.80;;
10641;SDS011;5369;49.586;8.646;2023-09-18T08:45:46;3.87;;;1.87;;
10641;SDS011;5369;49.586;8.646;2023-09-18T08:48:13;4.27;;;1.80;;
10641;SDS011;5369;49.586;8.646;2023-09-18T08:50:39;4.30;;;1.77;;
10641;SDS011;5369;49.586;8.646;2023-09-18T08:53:05;7.60;;;2.10;;
10641;SDS011;5369;49.586;8.646;2023-09-18T08:55:33;4.13;;;2.13;;
10641;SDS011;5369;49.586;8.646;2023-09-18T08:57:59;4.73;;;1.73;;
10641;SDS011;5369;49.586;8.646;2023-09-18T09:00:26;5.33;;;1.80;;
10641;SDS011;5369;49.586;8.646;2023-09-18T09:02:52;4.70;;;2.03;;
10641;SDS011;5369;49.586;8.646;2023-09-18T09:05:20;4.33;;;1.70;;
10641;SDS011;5369;49.586;8.646;2023-09-18T09:07:46;4.87;;;1.80;;
10641;SDS011;5369;49.586;8.646;2023-09-18T09:10:13;4.23;;;1.83;;
10641;SDS011;5369;49.586;8.646;2023-09-18T09:15:19;4.67;;;1.60;;
10641;SDS011;5369;49.586;8.646;2023-09-18T09:17:45;4.67;;;1.93;;
10641;SDS011;5369;49.586;8.646;2023-09-18T09:20:12;6.20;;;1.67;;
10641;SDS011;5369;49.586;8.646;2023-09-18T09:22:39;4.03;;;1.80;;
10641;SDS011;5369;49.586;8.646;2023-09-18T09:27:47;3.50;;;1.80;;
10641;SDS011;5369;49.586;8.646;2023-09-18T09:30:20;5.30;;;1.70;;
10641;SDS011;5369;49.586;8.646;2023-09-18T09:32:53;4.27;;;1.77;;
10641;SDS011;5369;49.586;8.646;2023-09-18T09:35:27;3.13;;;1.60;;
10641;SDS011;5369;49.586;8.646;2023-09-18T09:37:54;3.87;;;1.70;;
10641;SDS011;5369;49.586;8.646;2023-09-18T09:40:21;3.57;;;1.50;;
10641;SDS011;5369;49.586;8.646;2023-09-18T09:42:47;5.07;;;1.73;;
10641;SDS011;5369;49.586;8.646;2023-09-18T09:45:15;3.73;;;1.77;;
10641;SDS011;5369;49.586;8.646;2023-09-18T09:47:41;6.10;;;1.80;;
10641;SDS011;5369;49.586;8.646;2023-09-18T09:50:08;5.33;;;1.87;;
10641;SDS011;5369;49.586;8.646;2023-09-18T09:52:35;3.47;;;1.70;;
10641;SDS011;5369;49.586;8.646;2023-09-18T09:55:02;4.37;;;1.57;;
10641;SDS011;5369;49.586;8.646;2023-09-18T09:57:33;2.37;;;1.50;;
10641;SDS011;5369;49.586;8.646;2023-09-18T10:00:12;5.43;;;1.80;;
10641;SDS011;5369;49.586;8.646;2023-09-18T10:02:53;5.47;;;1.87;;
10641;SDS011;5369;49.586;8.646;2023-09-18T10:05:20;5.23;;;1.60;;
10641;SDS011;5369;49.586;8.646;2023-09-18T10:07:46;4.10;;;1.57;;
10641;SDS011;5369;49.586;8.646;2023-09-18T10:10:12;5.50;;;1.80;;
10641;SDS011;5369;49.586;8.646;2023-09-18T10:12:39;3.43;;;1.77;;
10641;SDS011;5369;49.586;8.646;2023-09-18T10:15:05;6.70;;;1.50;;
10641;SDS011;5369;49.586;8.646;2023-09-18T10:17:34;3.27;;;1.70;;
10641;SDS011;5369;49.586;8.646;2023-09-18T10:22:39;3.37;;;1.53;;
10641;SDS011;5369;49.586;8.646;2023-09-18T10:25:11;2.83;;;1.57;;
10641;SDS011;5369;49.586;8.646;2023-09-18T10:27:42;2.47;;;1.40;;
10641;SDS011;5369;49.586;8.646;2023-09-18T10:30:09;3.33;;;1.47;;
10641;SDS011;5369;49.586;8.646;2023-09-18T10:32:37;3.03;;;1.50;;
10641;SDS011;5369;49.586;8.646;2023-09-18T10:35:04;3.30;;;1.60;;
10641;SDS011;5369;49.586;8.646;2023-09-18T10:37:31;5.50;;;1.67;;
10641;SDS011;5369;49.586;8.646;2023-09-18T10:39:57;3.47;;;1.70;;
10641;SDS011;5369;49.586;8.646;2023-09-18T10:42:24;3.87;;;1.40;;
10641;SDS011;5369;49.586;8.646;2023-09-18T10:44:52;6.50;;;1.63;;
10641;SDS011;5369;49.586;8.646;2023-09-18T10:47:18;2.73;;;1.40;;
10641;SDS011;5369;49.586;8.646;2023-09-18T10:49:45;4.50;;;1.70;;
10641;SDS011;5369;49.586;8.646;2023-09-18T10:52:11;3.47;;;1.57;;
10641;SDS011;5369;49.586;8.646;2023-09-18T10:54:38;4.73;;;1.60;;
10641;SDS011;5369;49.586;8.646;2023-09-18T10:57:05;2.53;;;1.43;;
10641;SDS011;5369;49.586;8.646;2023-09-18T10:59:31;3.93;;;1.70;;
10641;SDS011;5369;49.586;8.646;2023-09-18T11:02:02;4.73;;;1.70;;
10641;SDS011;5369;49.586;8.646;2023-09-18T11:04:30;4.07;;;1.60;;
10641;SDS011;5369;49.586;8.646;2023-09-18T11:09:25;2.47;;;1.50;;
10641;SDS011;5369;49.586;8.646;2023-09-18T11:11:52;3.63;;;1.57;;
10641;SDS011;5369;49.586;8.646;2023-09-18T11:14:23;4.83;;;1.80;;
10641;SDS011;5369;49.586;8.646;2023-09-18T11:16:49;4.43;;;1.70;;
10641;SDS011;5369;49.586;8.646;2023-09-18T11:19:18;5.97;;;1.73;;
10641;SDS011;5369;49.586;8.646;2023-09-18T11:21:45;2.80;;;1.60;;
10641;SDS011;5369;49.586;8.646;2023-09-18T11:24:19;3.70;;;1.80;;
10641;SDS011;5369;49.586;8.646;2023-09-18T11:26:46;4.07;;;1.70;;
10641;SDS011;5369;49.586;8.646;2023-09-18T11:29:16;3.80;;;1.80;;
10641;SDS011;5369;49.586;8.646;2023-09-18T11:31:47;5.63;;;1.80;;
10641;SDS011;5369;49.586;8.646;2023-09-18T11:34:22;3.93;;;1.70;;
10641;SDS011;5369;49.586;8.646;2023-09-18T11:36:48;5.17;;;1.60;;
10641;SDS011;5369;49.586;8.646;2023-09-18T11:42:16;5.77;;;1.60;;
10641;SDS011;5369;49.586;8.646;2023-09-18T11:44:44;4.37;;;1.67;;
10641;SDS011;5369;49.586;8.646;2023-09-18T11:47:14;3.23;;;1.50;;
10641;SDS011;5369;49.586;8.646;2023-09-18T11:49:49;4.83;;;1.90;;
10641;SDS011;5369;49.586;8.646;2023-09-18T11:52:18;4.17;;;1.83;;
10641;SDS011;5369;49.586;8.646;2023-09-18T11:54:44;4.63;;;1.50;;
10641;SDS011;5369;49.586;8.646;2023-09-18T11:57:12;3.83;;;1.60;;
10641;SDS011;5369;49.586;8.646;2023-09-18T11:59:39;5.03;;;1.70;;
10641;SDS011;5369;49.586;8.646;2023-09-18T12:02:07;3.93;;;1.50;;
10641;SDS011;5369;49.586;8.646;2023-09-18T12:04:34;3.23;;;1.63;;
10641;SDS011;5369;49.586;8.646;2023-09-18T12:07:00;3.43;;;1.47;;
10641;SDS011;5369;49.586;8.646;2023-09-18T12:09:31;3.87;;;1.77;;
10641;SDS011;5369;49.586;8.646;2023-09-18T12:11:59;4.20;;;1.80;;
10641;SDS011;5369;49.586;8.646;2023-09-18T12:14:32;3.83;;;1.70;;
10641;SDS011;5369;49.586;8.646;2023-09-18T12:16:59;4.57;;;1.70;;
10641;SDS011;5369;49.586;8.646;2023-09-18T12:19:26;3.70;;;1.60;;
10641;SDS011;5369;49.586;8.646;2023-09-18T12:21:52;3.23;;;1.50;;
10641;SDS011;5369;49.586;8.646;2023-09-18T12:24:21;3.57;;;1.70;;
10641;SDS011;5369;49.586;8.646;2023-09-18T12:26:48;4.00;;;1.33;;
10641;SDS011;5369;49.586;8.646;2023-09-18T12:29:14;4.87;;;2.00;;
10641;SDS011;5369;49.586;8.646;2023-09-18T12:31:40;5.83;;;1.87;;
10641;SDS011;5369;49.586;8.646;2023-09-18T12:34:14;3.30;;;1.50;;
10641;SDS011;5369;49.586;8.646;2023-09-18T12:36:41;3.57;;;1.60;;
10641;SDS011;5369;49.586;8.646;2023-09-18T12:39:08;3.20;;;1.60;;
10641;SDS011;5369;49.586;8.646;2023-09-18T12:41:36;2.97;;;1.60;;
10641;SDS011;5369;49.586;8.646;2023-09-18T12:44:02;3.70;;;1.50;;
10641;SDS011;5369;49.586;8.646;2023-09-18T12:46:29;3.33;;;1.50;;
10641;SDS011;5369;49.586;8.646;2023-09-18T12:48:55;3.07;;;1.80;;
10641;SDS011;5369;49.586;8.646;2023-09-18T12:51:28;4.10;;;1.60;;
10641;SDS011;5369;49.586;8.646;2023-09-18T12:54:00;2.43;;;1.50;;
10641;SDS011;5369;49.586;8.646;2023-09-18T12:56:26;4.37;;;1.47;;
10641;SDS011;5369;49.586;8.646;2023-09-18T12:58:52;5.87;;;1.90;;
10641;SDS011;5369;49.586;8.646;2023-09-18T13:01:18;2.57;;;1.43;;
10641;SDS011;5369;49.586;8.646;2023-09-18T13:03:45;3.07;;;1.50;;
10641;SDS011;5369;49.586;8.646;2023-09-18T13:06:18;4.13;;;1.70;;
10641;SDS011;5369;49.586;8.646;2023-09-18T13:08:44;3.63;;;1.50;;
10641;SDS011;5369;49.586;8.646;2023-09-18T13:11:11;3.47;;;1.57;;
10641;SDS011;5369;49.586;8.646;2023-09-18T13:13:39;4.10;;;1.40;;
10641;SDS011;5369;49.586;8.646;2023-09-18T13:16:06;6.57;;;1.40;;
10641;SDS011;5369;49.586;8.646;2023-09-18T13:18:36;3.47;;;1.43;;
10641;SDS011;5369;49.586;8.646;2023-09-18T13:21:11;3.60;;;1.63;;
10641;SDS011;5369;49.586;8.646;2023-09-18T13:23:39;3.07;;;1.60;;
10641;SDS011;5369;49.586;8.646;2023-09-18T13:26:05;2.97;;;1.57;;
10641;SDS011;5369;49.586;8.646;2023-09-18T13:28:33;3.03;;;1.47;;
10641;SDS011;5369;49.586;8.646;2023-09-18T13:31:00;5.07;;;1.70;;
10641;SDS011;5369;49.586;8.646;2023-09-18T13:33:30;6.57;;;1.80;;
10641;SDS011;5369;49.586;8.646;2023-09-18T13:35:59;4.07;;;1.53;;
10641;SDS011;5369;49.586;8.646;2023-09-18T13:38:25;2.40;;;1.60;;
10641;SDS011;5369;49.586;8.646;2023-09-18T13:40:51;2.70;;;1.60;;
10641;SDS011;5369;49.586;8.646;2023-09-18T13:43:20;5.20;;;1.73;;
10641;SDS011;5369;49.586;8.646;2023-09-18T13:45:48;3.40;;;1.57;;
10641;SDS011;5369;49.586;8.646;2023-09-18T13:48:17;2.23;;;1.50;;
10641;SDS011;5369;49.586;8.646;2023-09-18T13:50:44;2.63;;;1.33;;
10641;SDS011;5369;49.586;8.646;2023-09-18T13:53:11;3.50;;;1.30;;
10641;SDS011;5369;49.586;8.646;2023-09-18T13:55:37;5.83;;;1.70;;
10641;SDS011;5369;49.586;8.646;2023-09-18T13:58:03;2.53;;;1.53;;
10641;SDS011;5369;49.586;8.646;2023-09-18T14:00:30;3.30;;;1.47;;
10641;SDS011;5369;49.586;8.646;2023-09-18T14:02:56;3.23;;;1.43;;
10641;SDS011;5369;49.586;8.646;2023-09-18T14:05:22;2.90;;;1.30;;
10641;SDS011;5369;49.586;8.646;2023-09-18T14:07:49;3.07;;;1.70;;
10641;SDS011;5369;49.586;8.646;2023-09-18T14:10:15;1.90;;;1.30;;
10641;SDS011;5369;49.586;8.646;2023-09-18T14:12:43;1.90;;;1.40;;
10641;SDS011;5369;49.586;8.646;2023-09-18T14:15:10;2.40;;;1.20;;
10641;SDS011;5369;49.586;8.646;2023-09-18T14:17:37;2.27;;;1.53;;
10641;SDS011;5369;49.586;8.646;2023-09-18T14:20:03;5.40;;;1.20;;
10641;SDS011;5369;49.586;8.646;2023-09-18T14:22:32;3.67;;;1.30;;
10641;SDS011;5369;49.586;8.646;2023-09-18T14:24:58;3.87;;;1.50;;
10641;SDS011;5369;49.586;8.646;2023-09-18T14:27:24;2.90;;;1.70;;
10641;SDS011;5369;49.586;8.646;2023-09-18T14:29:50;3.57;;;1.50;;
10641;SDS011;5369;49.586;8.646;2023-09-18T14:32:16;3.47;;;1.60;;
10641;SDS011;5369;49.586;8.646;2023-09-18T14:34:44;2.63;;;1.43;;
10641;SDS011;5369;49.586;8.646;2023-09-18T14:37:11;2.03;;;1.37;;
10641;SDS011;5369;49.586;8.646;2023-09-18T14:39:37;4.07;;;1.47;;
10641;SDS011;5369;49.586;8.646;2023-09-18T14:42:03;2.93;;;1.33;;
10641;SDS011;5369;49.586;8.646;2023-09-18T14:44:29;3.70;;;1.70;;
10641;SDS011;5369;49.586;8.646;2023-09-18T14:46:55;3.77;;;1.60;;
10641;SDS011;5369;49.586;8.646;2023-09-18T14:49:22;3.40;;;1.40;;
10641;SDS011;5369;49.586;8.646;2023-09-18T14:51:48;1.67;;;1.20;;
10641;SDS011;5369;49.586;8.646;2023-09-18T14:54:19;3.67;;;1.40;;
10641;SDS011;5369;49.586;8.646;2023-09-18T14:56:45;5.03;;;1.53;;
10641;SDS011;5369;49.586;8.646;2023-09-18T14:59:12;4.40;;;1.53;;
10641;SDS011;5369;49.586;8.646;2023-09-18T15:01:38;2.70;;;1.47;;
10641;SDS011;5369;49.586;8.646;2023-09-18T15:04:08;2.87;;;1.60;;
10641;SDS011;5369;49.586;8.646;2023-09-18T15:06:34;2.20;;;1.33;;
10641;SDS011;5369;49.586;8.646;2023-09-18T15:09:00;1.73;;;1.30;;
10641;SDS011;5369;49.586;8.646;2023-09-18T15:11:28;4.53;;;1.53;;
10641;SDS011;5369;49.586;8.646;2023-09-18T15:13:54;5.63;;;2.00;;